Time;durP1;ratioP1;P1;durP2;ratioP2;P2;SDS_P1;SDS_P2;PMS_P1;PMS_P2;Temp;Humidity;BMP_temperature;BMP_pressure;BME280_temperature;BME280_humidity;BME280_pressure;Samples;Min_cycle;Max_cycle;Signal;HPM_P1;HPM_P2
2022/03/16 00:01:46;;;;;;;15.27;9.27;;;;;;;;;;5023116;28;20054;-82
2022/03/16 00:04:13;;;;;;;14.77;9.10;;;;;;;;;;5026152;28;20055;-83
2022/03/16 00:06:39;;;;;;;18.42;10.18;;;;;;;;;;5023183;28;20057;-81
2022/03/16 00:09:06;;;;;;;18.40;11.02;;;;;;;;;;5048407;28;20064;-82
2022/03/16 00:11:32;;;;;;;19.13;10.20;;;;;;;;;;5040949;28;20088;-82
2022/03/16 00:13:59;;;;;;;17.95;10.98;;;;;;;;;;5018553;28;20148;-84
2022/03/16 00:16:25;;;;;;;16.55;10.40;;;;;;;;;;5041293;28;20049;-83
2022/03/16 00:18:52;;;;;;;20.30;10.52;;;;;;;;;;5031481;28;20050;-81
2022/03/16 00:21:18;;;;;;;17.38;10.05;;;;;;;;;;5031987;28;20045;-83
2022/03/16 00:23:45;;;;;;;16.20;10.02;;;;;;;;;;5031187;28;20424;-81
2022/03/16 00:26:11;;;;;;;17.90;10.55;;;;;;;;;;5043203;28;20714;-81
2022/03/16 00:28:37;;;;;;;22.98;11.73;;;;;;;;;;5046332;28;20054;-86
2022/03/16 00:31:04;;;;;;;23.02;12.45;;;;;;;;;;5021771;28;20062;-85
2022/03/16 00:33:31;;;;;;;23.65;11.85;;;;;;;;;;5023861;28;20052;-82
2022/03/16 00:35:57;;;;;;;20.45;11.43;;;;;;;;;;5021369;28;20054;-85
2022/03/16 00:38:24;;;;;;;18.23;11.02;;;;;;;;;;5021355;28;20046;-86
2022/03/16 00:40:50;;;;;;;20.25;11.52;;;;;;;;;;5021624;28;20034;-83
2022/03/16 00:43:17;;;;;;;17.10;10.85;;;;;;;;;;5020997;28;20108;-82
2022/03/16 00:45:43;;;;;;;20.95;11.60;;;;;;;;;;5036480;28;20800;-81
2022/03/16 00:48:10;;;;;;;19.88;11.68;;;;;;;;;;5054559;28;20539;-82
2022/03/16 00:50:36;;;;;;;17.70;10.13;;;;;;;;;;5020955;28;20046;-82
2022/03/16 00:53:02;;;;;;;23.00;12.18;;;;;;;;;;5032642;28;20061;-82
2022/03/16 00:55:29;;;;;;;21.20;12.15;;;;;;;;;;5021115;28;20046;-85
2022/03/16 00:57:55;;;;;;;23.95;12.02;;;;;;;;;;5021942;28;20034;-85
2022/03/16 01:00:21;;;;;;;21.45;11.90;;;;;;;;;;5021031;28;20058;-84
2022/03/16 01:02:48;;;;;;;19.08;10.82;;;;;;;;;;5028015;28;20053;-84
2022/03/16 01:05:14;;;;;;;15.35;9.88;;;;;;;;;;5032034;28;20054;-81
2022/03/16 01:07:41;;;;;;;16.23;10.82;;;;;;;;;;5032153;28;20084;-82
2022/03/16 01:10:07;;;;;;;16.67;10.20;;;;;;;;;;5040952;28;20128;-82
2022/03/16 01:12:34;;;;;;;15.35;9.48;;;;;;;;;;5014877;28;20057;-86
2022/03/16 01:15:00;;;;;;;16.63;9.65;;;;;;;;;;5023209;28;20038;-82
2022/03/16 01:17:26;;;;;;;15.27;9.18;;;;;;;;;;5024054;28;20068;-82
2022/03/16 01:19:53;;;;;;;14.80;9.75;;;;;;;;;;5040988;28;20157;-82
2022/03/16 01:22:19;;;;;;;14.57;8.77;;;;;;;;;;5021859;28;20050;-82
2022/03/16 01:24:46;;;;;;;14.70;8.98;;;;;;;;;;5021414;28;20057;-81
2022/03/16 01:27:12;;;;;;;15.57;9.40;;;;;;;;;;5022350;28;20074;-82
2022/03/16 01:29:45;;;;;;;18.55;10.02;;;;;;;;;;5054004;28;20071;-85
2022/03/16 01:32:11;;;;;;;20.13;11.95;;;;;;;;;;5025583;28;20497;-82
2022/03/16 01:34:38;;;;;;;18.77;10.68;;;;;;;;;;5040274;28;20057;-84
2022/03/16 01:37:04;;;;;;;18.30;11.18;;;;;;;;;;5023332;28;20151;-83
2022/03/16 01:39:31;;;;;;;18.50;10.50;;;;;;;;;;5041738;28;20101;-84
2022/03/16 01:41:58;;;;;;;18.70;10.48;;;;;;;;;;5028257;28;20050;-83
2022/03/16 01:44:41;;;;;;;17.27;9.75;;;;;;;;;;5031322;28;20045;-82
2022/03/16 01:47:07;;;;;;;15.20;9.90;;;;;;;;;;5036261;28;20046;-85
2022/03/16 01:49:34;;;;;;;15.27;8.48;;;;;;;;;;5038002;28;20057;-84
2022/03/16 01:52:00;;;;;;;16.23;8.10;;;;;;;;;;5034111;28;20108;-82
2022/03/16 01:54:31;;;;;;;11.93;8.50;;;;;;;;;;5049612;28;20061;-82
2022/03/16 01:56:58;;;;;;;13.07;8.35;;;;;;;;;;5025401;28;20045;-84
2022/03/16 01:59:25;;;;;;;13.35;8.38;;;;;;;;;;5016366;28;20050;-83
2022/03/16 02:01:51;;;;;;;13.55;8.07;;;;;;;;;;5030239;28;20038;-83
2022/03/16 02:04:17;;;;;;;13.73;8.88;;;;;;;;;;5019497;28;20133;-83
2022/03/16 02:06:44;;;;;;;15.90;8.95;;;;;;;;;;5024953;28;20054;-83
2022/03/16 02:09:10;;;;;;;13.38;8.70;;;;;;;;;;5043153;28;20045;-84
2022/03/16 02:11:36;;;;;;;14.32;8.63;;;;;;;;;;5023978;28;20112;-83
2022/03/16 02:14:03;;;;;;;18.63;9.50;;;;;;;;;;5022542;28;20050;-83
2022/03/16 02:16:33;;;;;;;16.02;9.18;;;;;;;;;;5025324;28;20060;-86
2022/03/16 02:18:59;;;;;;;18.50;9.75;;;;;;;;;;5029555;28;20061;-82
2022/03/16 02:21:30;;;;;;;14.98;9.30;;;;;;;;;;5035010;28;20099;-81
2022/03/16 02:23:57;;;;;;;18.40;10.35;;;;;;;;;;5031866;28;20046;-82
2022/03/16 02:26:26;;;;;;;19.38;10.25;;;;;;;;;;5027843;28;20607;-85
2022/03/16 02:28:53;;;;;;;19.50;10.77;;;;;;;;;;5037797;28;20050;-86
2022/03/16 02:31:20;;;;;;;19.15;11.48;;;;;;;;;;5026444;28;20089;-83
2022/03/16 02:33:47;;;;;;;22.92;12.00;;;;;;;;;;5024097;28;20061;-81
2022/03/16 02:36:13;;;;;;;20.38;11.77;;;;;;;;;;5029976;28;20046;-84
2022/03/16 02:38:40;;;;;;;22.55;12.18;;;;;;;;;;5032337;28;20101;-81
2022/03/16 02:41:07;;;;;;;21.95;11.38;;;;;;;;;;5015141;28;20077;-82
2022/03/16 02:43:33;;;;;;;19.77;11.35;;;;;;;;;;5048154;28;20065;-82
2022/03/16 02:45:59;;;;;;;20.08;11.63;;;;;;;;;;5025013;28;20099;-84
2022/03/16 02:48:26;;;;;;;20.92;11.75;;;;;;;;;;5029137;28;21005;-81
2022/03/16 02:50:53;;;;;;;20.50;12.27;;;;;;;;;;5038932;28;20532;-84
2022/03/16 02:53:19;;;;;;;22.05;11.93;;;;;;;;;;5023328;28;20528;-83
2022/03/16 02:55:51;;;;;;;22.65;12.35;;;;;;;;;;5031323;28;20057;-86
2022/03/16 02:58:17;;;;;;;22.00;12.68;;;;;;;;;;5034616;28;20042;-86
2022/03/16 03:00:44;;;;;;;23.38;11.95;;;;;;;;;;5052200;28;20896;-86
2022/03/16 03:03:11;;;;;;;24.40;13.15;;;;;;;;;;5068737;28;20671;-82
2022/03/16 03:05:38;;;;;;;26.25;14.98;;;;;;;;;;5052889;28;20881;-87
2022/03/16 03:08:04;;;;;;;22.83;13.23;;;;;;;;;;5044121;28;20200;-86
2022/03/16 03:10:31;;;;;;;25.38;13.52;;;;;;;;;;5053789;28;20049;-86
2022/03/16 03:12:57;;;;;;;22.95;12.95;;;;;;;;;;5036218;28;20580;-86
2022/03/16 03:15:23;;;;;;;25.35;13.30;;;;;;;;;;5035772;28;20077;-85
2022/03/16 03:17:50;;;;;;;24.17;12.90;;;;;;;;;;5042426;28;20061;-86
2022/03/16 03:20:17;;;;;;;24.92;11.52;;;;;;;;;;5042987;28;20024;-87
2022/03/16 03:22:43;;;;;;;18.38;11.27;;;;;;;;;;5036425;28;20042;-84
2022/03/16 03:25:11;;;;;;;22.35;11.95;;;;;;;;;;5034848;28;20050;-84
2022/03/16 03:27:37;;;;;;;20.35;11.98;;;;;;;;;;5059285;28;20061;-84
2022/03/16 03:30:04;;;;;;;24.67;12.18;;;;;;;;;;5033448;28;20049;-85
2022/03/16 03:32:31;;;;;;;21.17;12.00;;;;;;;;;;5030889;28;20077;-85
2022/03/16 03:34:57;;;;;;;22.27;12.13;;;;;;;;;;5042080;28;20041;-82
2022/03/16 03:37:30;;;;;;;22.58;13.27;;;;;;;;;;5022770;28;20054;-83
2022/03/16 03:39:57;;;;;;;23.10;11.95;;;;;;;;;;5052274;28;20054;-82
2022/03/16 03:42:23;;;;;;;23.65;12.10;;;;;;;;;;5034361;28;20046;-85
2022/03/16 03:44:50;;;;;;;24.05;12.75;;;;;;;;;;5027847;28;20054;-84
2022/03/16 03:47:16;;;;;;;26.83;12.90;;;;;;;;;;5041497;28;20064;-80
2022/03/16 03:49:43;;;;;;;22.27;11.95;;;;;;;;;;5023847;28;20076;-86
2022/03/16 03:52:10;;;;;;;21.33;11.90;;;;;;;;;;5042159;28;20737;-82
2022/03/16 03:54:36;;;;;;;20.05;11.82;;;;;;;;;;5042939;28;20046;-85
2022/03/16 03:57:03;;;;;;;20.13;11.20;;;;;;;;;;5032110;28;20053;-85
2022/03/16 03:59:30;;;;;;;21.52;11.82;;;;;;;;;;5026160;28;20054;-83
2022/03/16 04:01:56;;;;;;;20.90;12.02;;;;;;;;;;5017569;28;20054;-84
2022/03/16 04:04:23;;;;;;;24.65;12.70;;;;;;;;;;5023484;28;20145;-85
2022/03/16 04:06:49;;;;;;;31.10;15.85;;;;;;;;;;5034146;28;20042;-84
2022/03/16 04:09:15;;;;;;;38.95;19.58;;;;;;;;;;5026519;28;20045;-81
2022/03/16 04:11:42;;;;;;;50.75;23.13;;;;;;;;;;5044847;28;20073;-81
2022/03/16 04:14:10;;;;;;;50.42;22.50;;;;;;;;;;5044313;28;20112;-82
2022/03/16 04:16:36;;;;;;;49.50;23.00;;;;;;;;;;5054950;28;20080;-81
2022/03/16 04:19:03;;;;;;;54.97;25.08;;;;;;;;;;5031082;28;20049;-85
2022/03/16 04:21:29;;;;;;;50.65;24.27;;;;;;;;;;5042986;28;20064;-86
2022/03/16 04:23:56;;;;;;;55.67;24.52;;;;;;;;;;5060069;28;20081;-82
2022/03/16 04:26:22;;;;;;;56.08;25.40;;;;;;;;;;5032268;28;20216;-81
2022/03/16 04:28:49;;;;;;;60.40;26.35;;;;;;;;;;5034074;28;20065;-83
2022/03/16 04:31:15;;;;;;;55.60;26.17;;;;;;;;;;5033404;28;20058;-83
2022/03/16 04:33:41;;;;;;;57.33;25.65;;;;;;;;;;5045083;28;20129;-81
2022/03/16 04:36:08;;;;;;;53.00;25.15;;;;;;;;;;5027020;28;20073;-85
2022/03/16 04:38:34;;;;;;;59.65;25.52;;;;;;;;;;5025923;28;20058;-85
2022/03/16 04:41:01;;;;;;;56.28;26.08;;;;;;;;;;5033447;28;20092;-83
2022/03/16 04:43:27;;;;;;;51.80;25.23;;;;;;;;;;5033059;28;20058;-82
2022/03/16 04:45:54;;;;;;;58.15;27.13;;;;;;;;;;5030422;28;20614;-83
2022/03/16 04:48:20;;;;;;;54.00;26.73;;;;;;;;;;5024383;28;20054;-82
2022/03/16 04:50:46;;;;;;;53.80;26.27;;;;;;;;;;5040028;28;20078;-85
2022/03/16 04:53:13;;;;;;;59.97;27.15;;;;;;;;;;5039208;28;20065;-84
2022/03/16 04:55:39;;;;;;;56.33;25.98;;;;;;;;;;5023573;28;20058;-84
2022/03/16 04:58:06;;;;;;;54.75;25.98;;;;;;;;;;5026490;28;21016;-82
2022/03/16 05:00:36;;;;;;;52.13;26.73;;;;;;;;;;5026014;28;20918;-83
2022/03/16 05:03:03;;;;;;;53.97;25.07;;;;;;;;;;5054121;28;20165;-83
2022/03/16 05:05:30;;;;;;;53.40;25.23;;;;;;;;;;5027267;28;20266;-85
2022/03/16 05:07:56;;;;;;;51.63;25.77;;;;;;;;;;5024932;28;20524;-84
2022/03/16 05:10:23;;;;;;;55.85;25.73;;;;;;;;;;5043191;28;20058;-83
2022/03/16 05:12:49;;;;;;;55.35;25.55;;;;;;;;;;5030027;28;20125;-85
2022/03/16 05:15:16;;;;;;;45.70;23.05;;;;;;;;;;5027500;28;20054;-82
2022/03/16 05:17:43;;;;;;;50.30;23.60;;;;;;;;;;5026886;28;20104;-85
2022/03/16 05:20:10;;;;;;;51.90;24.70;;;;;;;;;;5037628;28;20058;-83
2022/03/16 05:22:40;;;;;;;48.13;22.90;;;;;;;;;;5039965;28;20081;-84
2022/03/16 05:25:07;;;;;;;50.63;23.95;;;;;;;;;;5044211;28;20461;-83
2022/03/16 05:27:33;;;;;;;50.80;23.35;;;;;;;;;;5040992;28;20054;-84
2022/03/16 05:29:59;;;;;;;48.55;23.75;;;;;;;;;;5034143;28;20062;-84
2022/03/16 05:32:26;;;;;;;47.45;23.52;;;;;;;;;;5035098;28;20042;-82
2022/03/16 05:34:52;;;;;;;46.80;21.75;;;;;;;;;;5028578;28;20058;-82
2022/03/16 05:37:19;;;;;;;48.33;22.85;;;;;;;;;;5030697;28;20159;-83
2022/03/16 05:39:45;;;;;;;48.47;23.10;;;;;;;;;;5042642;28;20058;-84
2022/03/16 05:42:11;;;;;;;42.92;21.77;;;;;;;;;;5045351;28;20057;-84
2022/03/16 05:44:38;;;;;;;46.78;22.40;;;;;;;;;;5026014;28;20046;-84
2022/03/16 05:47:04;;;;;;;46.03;23.05;;;;;;;;;;5034039;28;20045;-84
2022/03/16 05:49:31;;;;;;;50.65;23.58;;;;;;;;;;5027293;28;20034;-82
2022/03/16 05:51:57;;;;;;;50.42;23.27;;;;;;;;;;5047434;28;20099;-84
2022/03/16 05:54:24;;;;;;;44.20;22.92;;;;;;;;;;5029993;28;20088;-84
2022/03/16 05:56:51;;;;;;;49.17;24.17;;;;;;;;;;5031622;28;20046;-82
2022/03/16 05:59:17;;;;;;;47.30;24.15;;;;;;;;;;5026951;28;20069;-83
2022/03/16 06:01:43;;;;;;;46.22;22.80;;;;;;;;;;5035134;28;20041;-85
2022/03/16 06:04:10;;;;;;;43.28;21.83;;;;;;;;;;5029281;28;20100;-84
2022/03/16 06:06:37;;;;;;;42.45;21.98;;;;;;;;;;5028890;28;20073;-84
2022/03/16 06:09:04;;;;;;;41.60;21.58;;;;;;;;;;5043337;28;20521;-86
2022/03/16 06:11:32;;;;;;;51.55;24.50;;;;;;;;;;5027188;28;20042;-84
2022/03/16 06:13:58;;;;;;;44.30;22.88;;;;;;;;;;5047687;28;20053;-83
2022/03/16 06:16:24;;;;;;;44.88;21.45;;;;;;;;;;5029017;28;20062;-82
2022/03/16 06:18:51;;;;;;;46.38;23.10;;;;;;;;;;5030002;28;20037;-84
2022/03/16 06:21:17;;;;;;;41.92;21.55;;;;;;;;;;5052250;28;20104;-82
2022/03/16 06:23:44;;;;;;;43.75;21.15;;;;;;;;;;5027365;28;20061;-83
2022/03/16 06:26:11;;;;;;;43.63;21.25;;;;;;;;;;5028003;28;20095;-82
2022/03/16 06:28:37;;;;;;;46.42;22.63;;;;;;;;;;5056721;28;20058;-85
2022/03/16 06:31:06;;;;;;;47.45;22.25;;;;;;;;;;5027593;28;20037;-83
2022/03/16 06:33:33;;;;;;;50.00;22.42;;;;;;;;;;5035451;28;20765;-84
2022/03/16 06:36:00;;;;;;;44.60;22.52;;;;;;;;;;5032087;28;20547;-84
2022/03/16 06:38:26;;;;;;;40.53;21.50;;;;;;;;;;5034123;28;20107;-84
2022/03/16 06:40:53;;;;;;;43.53;22.10;;;;;;;;;;5052470;28;20077;-85
2022/03/16 06:43:21;;;;;;;40.70;21.27;;;;;;;;;;5026854;28;20065;-83
2022/03/16 06:45:47;;;;;;;43.25;22.17;;;;;;;;;;5024528;28;20088;-83
2022/03/16 06:48:13;;;;;;;38.28;21.23;;;;;;;;;;5044302;28;20057;-86
2022/03/16 06:50:40;;;;;;;40.42;21.55;;;;;;;;;;5024115;28;20042;-83
2022/03/16 06:53:06;;;;;;;40.22;21.50;;;;;;;;;;5046061;28;20061;-83
2022/03/16 06:55:33;;;;;;;44.35;22.58;;;;;;;;;;5020065;28;20054;-86
2022/03/16 06:57:59;;;;;;;42.10;21.27;;;;;;;;;;5030245;28;20113;-84
2022/03/16 07:00:25;;;;;;;41.70;21.30;;;;;;;;;;5020237;28;20045;-83
2022/03/16 07:03:02;;;;;;;37.42;20.02;;;;;;;;;;5022475;28;20057;-84
2022/03/16 07:05:30;;;;;;;46.67;23.05;;;;;;;;;;5027000;28;20094;-85
2022/03/16 07:08:00;;;;;;;38.90;21.35;;;;;;;;;;5046047;28;20057;-83
2022/03/16 07:10:27;;;;;;;38.20;20.92;;;;;;;;;;5025804;28;20053;-85
2022/03/16 07:12:53;;;;;;;41.58;21.45;;;;;;;;;;5027475;28;20494;-84
2022/03/16 07:15:20;;;;;;;39.65;21.40;;;;;;;;;;5015008;28;20060;-82
2022/03/16 07:17:46;;;;;;;38.35;21.35;;;;;;;;;;5013004;28;20112;-82
2022/03/16 07:20:13;;;;;;;36.42;20.33;;;;;;;;;;5007864;28;21016;-82
2022/03/16 07:22:41;;;;;;;35.47;20.55;;;;;;;;;;5025884;28;20120;-82
2022/03/16 07:25:20;;;;;;;35.05;20.20;;;;;;;;;;5031704;28;20037;-80
2022/03/16 07:27:47;;;;;;;34.47;19.13;;;;;;;;;;5040436;28;20060;-80
2022/03/16 07:30:18;;;;;;;34.90;19.48;;;;;;;;;;5014732;28;20101;-80
2022/03/16 07:32:44;;;;;;;37.85;18.95;;;;;;;;;;5014625;28;20504;-80
2022/03/16 07:35:11;;;;;;;34.28;18.50;;;;;;;;;;5031533;28;20069;-80
2022/03/16 07:37:38;;;;;;;33.70;19.02;;;;;;;;;;5020557;28;20104;-80
2022/03/16 07:40:05;;;;;;;32.58;17.55;;;;;;;;;;5016340;28;20108;-80
2022/03/16 07:42:33;;;;;;;25.42;14.82;;;;;;;;;;5036649;28;20046;-80
2022/03/16 07:45:00;;;;;;;32.33;15.65;;;;;;;;;;5011343;28;20050;-80
2022/03/16 07:47:26;;;;;;;27.33;15.20;;;;;;;;;;5040302;28;20380;-80
2022/03/16 07:50:04;;;;;;;23.15;13.55;;;;;;;;;;5045782;28;20060;-80
2022/03/16 07:52:32;;;;;;;26.70;13.38;;;;;;;;;;5021422;28;20563;-80
2022/03/16 07:54:58;;;;;;;24.45;13.30;;;;;;;;;;5014169;28;20073;-80
2022/03/16 07:57:25;;;;;;;20.67;12.27;;;;;;;;;;5014537;28;20446;-80
2022/03/16 07:59:52;;;;;;;21.83;11.40;;;;;;;;;;5009261;28;20054;-80
2022/03/16 08:02:18;;;;;;;26.02;12.23;;;;;;;;;;5006839;28;20113;-80
2022/03/16 08:04:44;;;;;;;20.77;10.80;;;;;;;;;;5014898;28;20053;-80
2022/03/16 08:07:11;;;;;;;25.58;12.60;;;;;;;;;;5018323;28;20045;-80
2022/03/16 08:09:37;;;;;;;24.33;12.50;;;;;;;;;;5030719;28;20078;-80
2022/03/16 08:12:04;;;;;;;19.30;10.68;;;;;;;;;;5038415;28;20773;-81
2022/03/16 08:14:30;;;;;;;24.27;10.88;;;;;;;;;;5008151;28;20088;-80
2022/03/16 08:16:58;;;;;;;21.40;10.38;;;;;;;;;;5010793;28;20049;-80
2022/03/16 08:19:24;;;;;;;20.67;10.65;;;;;;;;;;5010709;28;20053;-81
2022/03/16 08:21:50;;;;;;;16.85;10.02;;;;;;;;;;5028957;28;20057;-82
2022/03/16 08:24:17;;;;;;;19.83;8.85;;;;;;;;;;5031880;28;20050;-82
2022/03/16 08:26:51;;;;;;;16.45;9.50;;;;;;;;;;5029134;28;20140;-81
2022/03/16 08:29:17;;;;;;;16.73;8.88;;;;;;;;;;5015059;28;20066;-82
2022/03/16 08:31:44;;;;;;;15.57;9.00;;;;;;;;;;5012119;28;20054;-82
2022/03/16 08:34:10;;;;;;;16.10;8.98;;;;;;;;;;5012619;28;20540;-81
2022/03/16 08:36:39;;;;;;;16.52;9.07;;;;;;;;;;5022177;28;20050;-81
2022/03/16 08:39:06;;;;;;;16.35;8.77;;;;;;;;;;5009849;28;20058;-81
2022/03/16 08:41:33;;;;;;;15.18;9.02;;;;;;;;;;5030554;28;20490;-81
2022/03/16 08:43:59;;;;;;;16.95;8.57;;;;;;;;;;5034311;28;20128;-81
2022/03/16 08:46:26;;;;;;;16.67;8.93;;;;;;;;;;5012861;28;20046;-81
2022/03/16 08:48:52;;;;;;;17.38;8.50;;;;;;;;;;5048687;28;20053;-81
2022/03/16 08:51:19;;;;;;;15.38;8.75;;;;;;;;;;5025728;28;20081;-81
2022/03/16 08:53:45;;;;;;;15.40;8.88;;;;;;;;;;5009978;28;20458;-81
2022/03/16 08:56:13;;;;;;;16.75;9.15;;;;;;;;;;5032464;28;20062;-81
2022/03/16 08:58:39;;;;;;;16.50;8.70;;;;;;;;;;5031321;28;20061;-81
2022/03/16 09:01:05;;;;;;;16.15;9.05;;;;;;;;;;5014232;28;20053;-81
2022/03/16 09:03:37;;;;;;;14.55;8.63;;;;;;;;;;5016211;28;20050;-81
2022/03/16 09:06:03;;;;;;;18.73;9.68;;;;;;;;;;5015050;28;20176;-79
2022/03/16 09:08:31;;;;;;;22.17;9.85;;;;;;;;;;5016797;28;20104;-79
2022/03/16 09:10:57;;;;;;;16.73;10.10;;;;;;;;;;5028368;28;20058;-81
2022/03/16 09:13:24;;;;;;;18.20;9.35;;;;;;;;;;5011796;28;20042;-81
2022/03/16 09:15:52;;;;;;;17.10;8.88;;;;;;;;;;5017035;28;20062;-81
2022/03/16 09:18:19;;;;;;;15.65;9.63;;;;;;;;;;5016043;28;20050;-81
2022/03/16 09:20:49;;;;;;;18.42;9.73;;;;;;;;;;5032081;28;20061;-81
2022/03/16 09:23:15;;;;;;;19.70;9.18;;;;;;;;;;5016384;28;20591;-81
2022/03/16 09:25:42;;;;;;;17.27;8.95;;;;;;;;;;5011111;28;20074;-81
2022/03/16 09:28:08;;;;;;;14.52;8.95;;;;;;;;;;5012835;28;20634;-81
2022/03/16 09:30:35;;;;;;;14.50;8.57;;;;;;;;;;5016554;28;20571;-81
2022/03/16 09:33:02;;;;;;;16.40;9.27;;;;;;;;;;5010587;28;20061;-81
2022/03/16 09:35:30;;;;;;;13.45;8.82;;;;;;;;;;5011800;28;20058;-81
2022/03/16 09:37:58;;;;;;;16.05;8.48;;;;;;;;;;5014993;28;20062;-81
2022/03/16 09:40:25;;;;;;;15.57;8.70;;;;;;;;;;5015902;28;20060;-82
2022/03/16 09:42:52;;;;;;;14.13;8.00;;;;;;;;;;5010341;28;20061;-81
2022/03/16 09:45:20;;;;;;;14.57;8.32;;;;;;;;;;5031356;28;20046;-82
2022/03/16 09:47:47;;;;;;;13.63;8.25;;;;;;;;;;5012248;28;20089;-82
2022/03/16 09:50:19;;;;;;;14.88;8.88;;;;;;;;;;5014635;28;20060;-82
2022/03/16 09:52:46;;;;;;;14.35;8.57;;;;;;;;;;5015010;28;20131;-81
2022/03/16 09:55:17;;;;;;;15.20;8.18;;;;;;;;;;5013064;28;20115;-82
2022/03/16 09:57:43;;;;;;;12.85;7.82;;;;;;;;;;5013254;28;20124;-82
2022/03/16 10:00:12;;;;;;;12.93;7.95;;;;;;;;;;5014105;28;20570;-81
2022/03/16 10:02:39;;;;;;;14.32;7.93;;;;;;;;;;5030651;28;20058;-82
2022/03/16 10:05:09;;;;;;;15.98;7.95;;;;;;;;;;5013854;28;20054;-81
2022/03/16 10:07:37;;;;;;;15.45;8.35;;;;;;;;;;5033009;28;20046;-82
2022/03/16 10:15:35;;;;;;;12.88;7.32;;;;;;;;;;5025893;28;20054;-81
2022/03/16 10:18:02;;;;;;;14.02;7.80;;;;;;;;;;5011703;28;20061;-81
2022/03/16 10:20:30;;;;;;;13.40;7.03;;;;;;;;;;5008463;28;20421;-82
2022/03/16 10:22:56;;;;;;;12.80;7.30;;;;;;;;;;5031842;28;20551;-81
2022/03/16 10:25:23;;;;;;;13.57;7.90;;;;;;;;;;5013967;28;20487;-82
2022/03/16 10:27:49;;;;;;;13.15;7.60;;;;;;;;;;5014045;28;20058;-82
2022/03/16 10:30:16;;;;;;;12.38;7.22;;;;;;;;;;5009711;28;20050;-82
2022/03/16 10:32:53;;;;;;;12.50;7.25;;;;;;;;;;5027763;28;20141;-79
2022/03/16 10:35:19;;;;;;;13.68;7.55;;;;;;;;;;5028871;28;20054;-82
2022/03/16 10:37:47;;;;;;;13.98;7.28;;;;;;;;;;5019010;28;20085;-81
2022/03/16 10:40:20;;;;;;;12.10;7.05;;;;;;;;;;5012327;28;20525;-81
2022/03/16 10:48:19;;;;;;;12.02;7.05;;;;;;;;;;5024140;28;20054;-81
2022/03/16 10:50:47;;;;;;;12.38;7.22;;;;;;;;;;5012809;28;20049;-81
2022/03/16 10:53:15;;;;;;;13.15;7.25;;;;;;;;;;5012236;28;20057;-81
2022/03/16 10:55:42;;;;;;;12.63;7.35;;;;;;;;;;5013696;28;20112;-81
2022/03/16 10:58:08;;;;;;;11.90;7.00;;;;;;;;;;5013389;28;20062;-81
2022/03/16 11:00:36;;;;;;;11.18;7.13;;;;;;;;;;5030667;28;20058;-81
2022/03/16 11:03:09;;;;;;;12.30;7.57;;;;;;;;;;5013950;28;20060;-81
2022/03/16 11:05:36;;;;;;;11.23;7.32;;;;;;;;;;5009919;28;20054;-81
2022/03/16 11:08:07;;;;;;;12.52;7.15;;;;;;;;;;5024912;28;20492;-81
2022/03/16 11:10:33;;;;;;;;;;;;;;;;;;5013591;28;20058;-81
2022/03/16 11:15:46;;;;;;;11.43;6.47;;;;;;;;;;5018393;28;20100;-81
2022/03/16 11:18:13;;;;;;;11.05;6.57;;;;;;;;;;5012887;28;20057;-81
2022/03/16 11:20:39;;;;;;;10.32;6.43;;;;;;;;;;5030646;28;20054;-80
2022/03/16 11:25:58;;;;;;;11.82;7.10;;;;;;;;;;5014578;28;20924;-80
2022/03/16 11:28:43;;;;;;;13.45;7.50;;;;;;;;;;5031503;28;20054;-80
2022/03/16 11:31:13;;;;;;;12.75;6.70;;;;;;;;;;5014083;28;20064;-79
2022/03/16 11:33:50;;;;;;;13.47;7.17;;;;;;;;;;5014668;28;20057;-80
2022/03/16 11:36:31;;;;;;;10.90;6.63;;;;;;;;;;5013482;28;20084;-80
2022/03/16 11:38:59;;;;;;;9.93;6.28;;;;;;;;;;5012097;28;20085;-80
2022/03/16 11:41:26;;;;;;;10.55;6.55;;;;;;;;;;5022225;28;20570;-80
2022/03/16 11:43:56;;;;;;;10.35;6.95;;;;;;;;;;4999403;28;20079;-81
2022/03/16 11:46:27;;;;;;;13.95;6.65;;;;;;;;;;5031684;28;20148;-80
2022/03/16 11:49:00;;;;;;;10.90;6.55;;;;;;;;;;5030552;28;20050;-81
2022/03/16 11:51:27;;;;;;;11.05;6.60;;;;;;;;;;5030183;28;20112;-80
2022/03/16 11:54:01;;;;;;;11.45;7.10;;;;;;;;;;5031996;28;20045;-80
2022/03/16 11:56:29;;;;;;;11.88;6.88;;;;;;;;;;5013745;28;20054;-80
2022/03/16 11:58:56;;;;;;;11.13;6.85;;;;;;;;;;5017772;28;20057;-80
2022/03/16 12:01:23;;;;;;;11.15;6.90;;;;;;;;;;5023472;28;20058;-81
2022/03/16 12:03:59;;;;;;;12.13;7.00;;;;;;;;;;5031227;28;20045;-80
2022/03/16 12:06:29;;;;;;;12.25;6.88;;;;;;;;;;5013378;28;20081;-80
2022/03/16 12:08:58;;;;;;;13.93;7.05;;;;;;;;;;5030597;28;20041;-80
2022/03/16 12:14:10;;;;;;;13.55;6.82;;;;;;;;;;5030047;28;20595;-80
2022/03/16 12:16:40;;;;;;;11.43;6.90;;;;;;;;;;5013281;28;20073;-80
2022/03/16 12:19:28;;;;;;;12.35;7.32;;;;;;;;;;5011778;28;20057;-80
2022/03/16 12:21:56;;;;;;;11.02;6.93;;;;;;;;;;5029988;28;20547;-81
2022/03/16 12:30:06;;;;;;;12.57;7.50;;;;;;;;;;5031440;28;20509;-80
2022/03/16 12:32:35;;;;;;;11.38;7.05;;;;;;;;;;5012349;28;20104;-80
2022/03/16 12:35:03;;;;;;;13.70;7.30;;;;;;;;;;5013877;28;20563;-80
2022/03/16 12:37:29;;;;;;;12.02;7.45;;;;;;;;;;5031317;28;20112;-80
2022/03/16 12:39:56;;;;;;;11.80;7.47;;;;;;;;;;5027204;28;20102;-80
2022/03/16 12:42:32;;;;;;;14.68;7.85;;;;;;;;;;5016387;28;20081;-80
2022/03/16 12:45:03;;;;;;;11.77;7.18;;;;;;;;;;5012305;28;20077;-80
2022/03/16 12:47:34;;;;;;;13.60;7.15;;;;;;;;;;5012484;28;20073;-81
2022/03/16 12:50:01;;;;;;;11.40;7.28;;;;;;;;;;5030618;28;20120;-81
2022/03/16 12:52:28;;;;;;;14.00;7.65;;;;;;;;;;5012859;28;20058;-80
2022/03/16 12:54:55;;;;;;;11.75;6.90;;;;;;;;;;5030453;28;20100;-80
2022/03/16 12:57:21;;;;;;;11.27;6.82;;;;;;;;;;5011694;28;20061;-80
2022/03/16 12:59:52;;;;;;;13.13;8.05;;;;;;;;;;5012040;28;20873;-80
2022/03/16 13:02:19;;;;;;;;;;;;;;;;;;5012229;28;20062;-80
2022/03/16 13:04:50;;;;;;;13.95;7.50;;;;;;;;;;5021407;28;44934;-80
2022/03/16 13:07:18;;;;;;;12.82;7.38;;;;;;;;;;5011354;28;20057;-80
2022/03/16 13:09:44;;;;;;;12.85;7.55;;;;;;;;;;5011474;28;20104;-80
2022/03/16 13:12:12;;;;;;;12.73;7.45;;;;;;;;;;5029178;28;20057;-80
2022/03/16 13:14:41;;;;;;;13.40;8.15;;;;;;;;;;5011774;28;20050;-80
2022/03/16 13:17:07;;;;;;;11.50;7.40;;;;;;;;;;5010082;28;20050;-81
2022/03/16 13:19:36;;;;;;;12.70;7.70;;;;;;;;;;5029138;28;20058;-81
2022/03/16 13:22:04;;;;;;;11.95;6.90;;;;;;;;;;5029733;28;20046;-80
2022/03/16 13:24:31;;;;;;;12.18;7.10;;;;;;;;;;5011394;28;20148;-80
2022/03/16 13:26:57;;;;;;;12.57;8.00;;;;;;;;;;5010909;28;20100;-80
2022/03/16 13:29:24;;;;;;;12.18;7.65;;;;;;;;;;5029819;28;20133;-80
2022/03/16 13:31:57;;;;;;;12.32;7.63;;;;;;;;;;5029181;28;20054;-80
2022/03/16 13:34:24;;;;;;;18.58;8.20;;;;;;;;;;5030537;28;20553;-80
2022/03/16 13:36:53;;;;;;;11.80;7.53;;;;;;;;;;5014637;28;20108;-80
2022/03/16 13:39:24;;;;;;;12.90;7.57;;;;;;;;;;5031866;28;20058;-80
2022/03/16 13:42:12;;;;;;;11.52;7.65;;;;;;;;;;5032582;28;20104;-80
2022/03/16 13:44:40;;;;;;;12.77;7.68;;;;;;;;;;5014692;28;20342;-80
2022/03/16 13:47:18;;;;;;;12.63;8.07;;;;;;;;;;5014541;28;20134;-80
2022/03/16 13:49:45;;;;;;;14.20;8.05;;;;;;;;;;5032396;28;20053;-80
2022/03/16 13:52:13;;;;;;;12.63;7.60;;;;;;;;;;5032729;28;20057;-80
2022/03/16 13:54:41;;;;;;;13.77;8.00;;;;;;;;;;5031596;28;20595;-80
2022/03/16 13:57:16;;;;;;;12.05;7.60;;;;;;;;;;5025366;28;20568;-80
2022/03/16 13:59:50;;;;;;;13.32;8.07;;;;;;;;;;5011568;28;20049;-80
2022/03/16 14:02:35;;;;;;;13.93;7.38;;;;;;;;;;5032872;28;21288;-80
2022/03/16 14:05:03;;;;;;;14.57;8.23;;;;;;;;;;5031689;28;20058;-80
2022/03/16 14:07:33;;;;;;;13.88;7.80;;;;;;;;;;5015528;28;20120;-80
2022/03/16 14:10:01;;;;;;;12.60;7.72;;;;;;;;;;5014974;28;20061;-80
2022/03/16 14:12:35;;;;;;;13.25;8.43;;;;;;;;;;5014729;28;20046;-80
2022/03/16 14:15:06;;;;;;;13.98;8.52;;;;;;;;;;5028537;28;20054;-80
2022/03/16 14:17:42;;;;;;;15.73;8.65;;;;;;;;;;5032451;28;20448;-82
2022/03/16 14:20:10;;;;;;;15.95;8.77;;;;;;;;;;5031504;28;20058;-82
2022/03/16 14:22:36;;;;;;;15.32;8.57;;;;;;;;;;5030980;28;20124;-82
2022/03/16 14:25:17;;;;;;;16.10;9.13;;;;;;;;;;5012860;28;20060;-82
2022/03/16 14:27:44;;;;;;;18.25;8.45;;;;;;;;;;5014141;28;20060;-82
2022/03/16 14:30:12;;;;;;;16.35;8.35;;;;;;;;;;5013963;28;20050;-82
2022/03/16 14:32:38;;;;;;;12.95;8.40;;;;;;;;;;5012505;28;20053;-82
2022/03/16 14:35:05;;;;;;;13.60;8.18;;;;;;;;;;5013670;28;20058;-82
2022/03/16 14:37:31;;;;;;;15.18;8.45;;;;;;;;;;5031964;28;20504;-82
2022/03/16 14:39:58;;;;;;;14.00;8.07;;;;;;;;;;5013562;28;20134;-82
2022/03/16 14:42:25;;;;;;;14.30;8.73;;;;;;;;;;5029537;28;20551;-82
2022/03/16 14:44:51;;;;;;;17.77;8.73;;;;;;;;;;5009063;28;20105;-82
2022/03/16 14:47:18;;;;;;;14.90;7.82;;;;;;;;;;4999143;28;20050;-82
2022/03/16 14:49:45;;;;;;;16.27;7.95;;;;;;;;;;5020984;28;20082;-82
2022/03/16 14:52:11;;;;;;;12.75;7.75;;;;;;;;;;5020173;28;20057;-81